Time;durP1;ratioP1;P1;durP2;ratioP2;P2;SDS_P1;SDS_P2;PMS_P1;PMS_P2;Temp;Humidity;BMP_temperature;BMP_pressure;BME280_temperature;BME280_humidity;BME280_pressure;Samples;Min_cycle;Max_cycle;Signal;HPM_P1;HPM_P2
2023/04/27 00:01:26;;;;;;;12.13;5.07;;;;;;;;;;5021020;28;20022;-71
2023/04/27 00:03:52;;;;;;;15.82;6.10;;;;;;;;;;5026327;28;20383;-73
2023/04/27 00:06:17;;;;;;;12.38;5.22;;;;;;;;;;5013260;28;20364;-72
2023/04/27 00:08:42;;;;;;;19.60;7.05;;;;;;;;;;5013208;28;20052;-72
2023/04/27 00:11:07;;;;;;;19.33;5.80;;;;;;;;;;5012912;28;20034;-73
2023/04/27 00:13:33;;;;;;;14.35;5.65;;;;;;;;;;5013028;28;20018;-72
2023/04/27 00:16:02;;;;;;;12.40;4.93;;;;;;;;;;5013242;28;20137;-73
2023/04/27 00:18:27;;;;;;;;;;;;;;;;;;5014169;28;20025;-73
2023/04/27 00:20:52;;;;;;;11.50;4.80;;;;;;;;;;5013556;28;20310;-74
2023/04/27 00:23:17;;;;;;;14.48;5.40;;;;;;;;;;5013377;28;20327;-75
2023/04/27 00:25:42;;;;;;;7.57;4.30;;;;;;;;;;5013579;28;20036;-74
2023/04/27 00:28:08;;;;;;;13.13;4.28;;;;;;;;;;5014047;28;20026;-73
2023/04/27 00:30:33;;;;;;;14.13;4.47;;;;;;;;;;5013945;28;20464;-73
2023/04/27 00:32:58;;;;;;;11.15;4.82;;;;;;;;;;5013200;28;20014;-71
2023/04/27 00:35:24;;;;;;;11.40;5.43;;;;;;;;;;5013371;28;20022;-74
2023/04/27 00:37:49;;;;;;;16.33;5.25;;;;;;;;;;5013172;28;20424;-73
2023/04/27 00:40:14;;;;;;;16.70;5.55;;;;;;;;;;5007426;28;20554;-72
2023/04/27 00:42:39;;;;;;;12.65;5.10;;;;;;;;;;5013129;28;20026;-72
2023/04/27 00:45:05;;;;;;;11.23;5.07;;;;;;;;;;5012931;28;20036;-71
2023/04/27 00:47:31;;;;;;;15.82;5.05;;;;;;;;;;5013211;28;20032;-72
2023/04/27 00:49:56;;;;;;;9.57;5.15;;;;;;;;;;5012870;28;20022;-73
2023/04/27 00:52:22;;;;;;;13.98;5.43;;;;;;;;;;5010533;28;20113;-73
2023/04/27 00:54:49;;;;;;;14.93;5.32;;;;;;;;;;5011533;28;20046;-70
2023/04/27 00:57:15;;;;;;;10.90;4.20;;;;;;;;;;5013145;28;20586;-72
2023/04/27 00:59:40;;;;;;;11.88;5.35;;;;;;;;;;5012414;28;20108;-73
2023/04/27 01:02:05;;;;;;;12.65;4.78;;;;;;;;;;5012073;28;20395;-72
2023/04/27 01:04:31;;;;;;;9.75;4.60;;;;;;;;;;5011940;28;20021;-72
2023/04/27 01:06:56;;;;;;;14.98;4.07;;;;;;;;;;5012032;28;20018;-72
2023/04/27 01:09:21;;;;;;;20.75;4.38;;;;;;;;;;5011718;28;20507;-72
2023/04/27 01:11:47;;;;;;;9.82;3.50;;;;;;;;;;5011076;28;20033;-70
2023/04/27 01:14:12;;;;;;;9.88;4.25;;;;;;;;;;5011779;28;20017;-72
2023/04/27 01:16:38;;;;;;;7.88;3.75;;;;;;;;;;5012184;28;20068;-71
2023/04/27 01:19:03;;;;;;;11.73;4.28;;;;;;;;;;5011936;28;20532;-72
2023/04/27 01:21:28;;;;;;;8.60;4.10;;;;;;;;;;5011784;28;20054;-71
2023/04/27 01:23:54;;;;;;;11.20;4.28;;;;;;;;;;5011765;28;20687;-71
2023/04/27 01:26:19;;;;;;;15.52;4.20;;;;;;;;;;5011633;28;20558;-73
2023/04/27 01:28:45;;;;;;;11.35;4.28;;;;;;;;;;5011879;28;20017;-71
2023/04/27 01:31:10;;;;;;;10.00;3.75;;;;;;;;;;4997232;28;20061;-72
2023/04/27 01:33:36;;;;;;;9.90;3.80;;;;;;;;;;5010065;28;20029;-69
2023/04/27 01:36:01;;;;;;;8.52;4.38;;;;;;;;;;5011578;28;20464;-72
2023/04/27 01:38:27;;;;;;;8.30;3.75;;;;;;;;;;5011518;28;20018;-74
2023/04/27 01:40:54;;;;;;;11.38;4.32;;;;;;;;;;5005619;28;20071;-73
2023/04/27 01:43:19;;;;;;;10.77;3.80;;;;;;;;;;5011290;28;20420;-72
2023/04/27 01:45:45;;;;;;;12.43;3.65;;;;;;;;;;5011060;28;20025;-72
2023/04/27 01:48:10;;;;;;;10.38;3.78;;;;;;;;;;5011586;28;20411;-71
2023/04/27 01:50:36;;;;;;;9.18;3.92;;;;;;;;;;5011124;28;20030;-68
2023/04/27 01:53:02;;;;;;;12.02;3.80;;;;;;;;;;5011193;28;20026;-69
2023/04/27 01:55:27;;;;;;;8.60;3.33;;;;;;;;;;5010561;28;20033;-72
2023/04/27 01:57:52;;;;;;;9.52;3.90;;;;;;;;;;5006506;28;20011;-71
2023/04/27 02:00:18;;;;;;;13.30;4.22;;;;;;;;;;5005928;28;20025;-70
2023/04/27 02:02:44;;;;;;;11.23;3.60;;;;;;;;;;5011074;28;20029;-71
2023/04/27 02:05:09;;;;;;;17.63;4.60;;;;;;;;;;5010459;28;20025;-72
2023/04/27 02:07:34;;;;;;;18.60;4.82;;;;;;;;;;5010570;28;20034;-72
2023/04/27 02:09:59;;;;;;;8.40;3.58;;;;;;;;;;5025427;28;20018;-71
2023/04/27 02:12:25;;;;;;;15.45;4.18;;;;;;;;;;5011398;28;20022;-71
2023/04/27 02:14:50;;;;;;;7.63;3.60;;;;;;;;;;5010534;28;20045;-69
2023/04/27 02:17:15;;;;;;;9.60;3.78;;;;;;;;;;5010809;28;20026;-73
2023/04/27 02:19:41;;;;;;;9.73;4.22;;;;;;;;;;5010924;28;20076;-73
2023/04/27 02:22:06;;;;;;;10.25;3.67;;;;;;;;;;5009698;28;20072;-72
2023/04/27 02:24:31;;;;;;;9.63;3.88;;;;;;;;;;5010560;28;20030;-71
2023/04/27 02:26:56;;;;;;;13.02;5.00;;;;;;;;;;5010356;28;20120;-71
2023/04/27 02:29:21;;;;;;;10.88;3.83;;;;;;;;;;5010780;28;20044;-72
2023/04/27 02:31:47;;;;;;;11.80;4.47;;;;;;;;;;5010607;28;20032;-71
2023/04/27 02:34:12;;;;;;;8.10;3.25;;;;;;;;;;5010260;28;20101;-72
2023/04/27 02:36:37;;;;;;;11.93;4.50;;;;;;;;;;5010335;28;20025;-73
2023/04/27 02:39:02;;;;;;;6.32;3.50;;;;;;;;;;5008137;28;20049;-72
2023/04/27 02:41:30;;;;;;;9.20;4.30;;;;;;;;;;5001116;28;20479;-72
2023/04/27 02:43:55;;;;;;;5.65;3.50;;;;;;;;;;5009931;28;20033;-72
2023/04/27 02:46:20;;;;;;;7.63;3.72;;;;;;;;;;5009969;28;20026;-72
2023/04/27 02:48:46;;;;;;;11.05;3.70;;;;;;;;;;5010267;28;20108;-72
2023/04/27 02:51:11;;;;;;;12.77;4.47;;;;;;;;;;5009775;28;20034;-74
2023/04/27 02:53:36;;;;;;;7.15;3.90;;;;;;;;;;5010132;28;20014;-72
2023/04/27 02:56:01;;;;;;;15.93;3.40;;;;;;;;;;5010092;28;20032;-72
2023/04/27 02:58:27;;;;;;;9.05;3.80;;;;;;;;;;5010371;28;20018;-74
2023/04/27 03:00:53;;;;;;;8.95;4.07;;;;;;;;;;5010053;28;20078;-71
2023/04/27 03:03:18;;;;;;;11.23;4.00;;;;;;;;;;5009982;28;20017;-70
2023/04/27 03:05:43;;;;;;;11.77;4.07;;;;;;;;;;5008270;28;20455;-71
2023/04/27 03:08:09;;;;;;;9.38;4.07;;;;;;;;;;5005243;28;20533;-71
2023/04/27 03:10:34;;;;;;;11.50;4.75;;;;;;;;;;5009039;28;20075;-71
2023/04/27 03:12:59;;;;;;;11.43;4.63;;;;;;;;;;5010084;28;20067;-71
2023/04/27 03:15:24;;;;;;;14.15;4.88;;;;;;;;;;5009394;28;20010;-71
2023/04/27 03:17:50;;;;;;;10.02;4.47;;;;;;;;;;5005398;28;20487;-70
2023/04/27 03:20:15;;;;;;;8.43;3.78;;;;;;;;;;5008844;28;20403;-70
2023/04/27 03:22:40;;;;;;;18.50;4.75;;;;;;;;;;5009665;28;20395;-72
2023/04/27 03:25:06;;;;;;;9.25;4.20;;;;;;;;;;5009438;28;20705;-71
2023/04/27 03:27:31;;;;;;;10.38;4.35;;;;;;;;;;5009554;28;20108;-69
2023/04/27 03:29:57;;;;;;;13.32;4.53;;;;;;;;;;5009553;28;20037;-71
2023/04/27 03:32:22;;;;;;;8.45;4.40;;;;;;;;;;5009772;28;20025;-70
2023/04/27 03:34:47;;;;;;;10.35;4.57;;;;;;;;;;5000145;28;20087;-70
2023/04/27 03:37:12;;;;;;;11.43;3.97;;;;;;;;;;5015774;28;20523;-69
2023/04/27 03:39:38;;;;;;;8.80;4.13;;;;;;;;;;5016300;28;20026;-71
2023/04/27 03:42:03;;;;;;;9.27;3.72;;;;;;;;;;5016008;28;20040;-72
2023/04/27 03:44:32;;;;;;;7.28;3.67;;;;;;;;;;5016656;28;20038;-70
2023/04/27 03:46:57;;;;;;;8.75;4.22;;;;;;;;;;5016213;28;20576;-70
2023/04/27 03:49:22;;;;;;;15.23;5.55;;;;;;;;;;5011365;28;20122;-69
2023/04/27 03:51:48;;;;;;;8.95;4.45;;;;;;;;;;5015444;28;20018;-69
2023/04/27 03:54:13;;;;;;;8.73;4.35;;;;;;;;;;5015969;28;20028;-70
2023/04/27 03:56:39;;;;;;;9.00;4.13;;;;;;;;;;5015901;28;20018;-69
2023/04/27 03:59:04;;;;;;;18.00;5.40;;;;;;;;;;5014703;28;20018;-69
2023/04/27 04:01:30;;;;;;;10.45;4.28;;;;;;;;;;5016139;28;20022;-69
2023/04/27 04:03:56;;;;;;;14.23;4.00;;;;;;;;;;5014793;28;20435;-69
2023/04/27 04:06:21;;;;;;;8.45;4.20;;;;;;;;;;5013668;28;20025;-68
2023/04/27 04:08:46;;;;;;;14.48;4.65;;;;;;;;;;5011258;28;20037;-69
2023/04/27 04:11:11;;;;;;;11.73;4.25;;;;;;;;;;5008629;28;20026;-71
2023/04/27 04:13:37;;;;;;;9.52;3.60;;;;;;;;;;5003811;28;20022;-72
2023/04/27 04:16:03;;;;;;;10.88;4.47;;;;;;;;;;5004453;28;20030;-71
2023/04/27 04:18:28;;;;;;;11.45;4.25;;;;;;;;;;5003909;28;20447;-70
2023/04/27 04:20:54;;;;;;;17.70;4.78;;;;;;;;;;5002729;28;20053;-71
2023/04/27 04:23:19;;;;;;;7.60;3.45;;;;;;;;;;5004033;28;20033;-71
2023/04/27 04:25:47;;;;;;;12.30;4.20;;;;;;;;;;5001829;28;20022;-69
2023/04/27 04:28:12;;;;;;;11.48;3.90;;;;;;;;;;5015728;28;20372;-71
2023/04/27 04:30:38;;;;;;;16.00;4.70;;;;;;;;;;5011561;28;20480;-71
2023/04/27 04:33:03;;;;;;;9.43;4.78;;;;;;;;;;5015393;28;20065;-70
2023/04/27 04:35:29;;;;;;;12.82;4.55;;;;;;;;;;5015259;28;20483;-69
2023/04/27 04:37:54;;;;;;;7.40;3.55;;;;;;;;;;5015827;28;20030;-72
2023/04/27 04:40:20;;;;;;;21.73;4.93;;;;;;;;;;5010106;28;20075;-69
2023/04/27 04:42:45;;;;;;;16.48;6.22;;;;;;;;;;5013300;28;20399;-69
2023/04/27 04:45:10;;;;;;;13.32;5.03;;;;;;;;;;5008893;28;20029;-70
2023/04/27 04:47:36;;;;;;;10.20;5.38;;;;;;;;;;5012781;28;20026;-68
2023/04/27 04:50:01;;;;;;;17.35;4.40;;;;;;;;;;5009169;28;20464;-69
2023/04/27 04:52:26;;;;;;;17.50;5.22;;;;;;;;;;5011689;28;20018;-68
2023/04/27 04:54:52;;;;;;;15.10;5.22;;;;;;;;;;4998607;28;20019;-69
2023/04/27 04:57:17;;;;;;;14.10;5.72;;;;;;;;;;5008000;28;20092;-69
2023/04/27 04:59:42;;;;;;;12.90;5.72;;;;;;;;;;5011965;28;20491;-69
2023/04/27 05:02:08;;;;;;;10.73;4.65;;;;;;;;;;5012235;28;20017;-69
2023/04/27 05:04:33;;;;;;;16.98;5.93;;;;;;;;;;5010136;28;20036;-73
2023/04/27 05:06:59;;;;;;;9.82;4.45;;;;;;;;;;5011712;28;20511;-70
2023/04/27 05:09:24;;;;;;;14.07;4.60;;;;;;;;;;5010999;28;20606;-72
2023/04/27 05:11:50;;;;;;;14.02;5.05;;;;;;;;;;5008017;28;20018;-70
2023/04/27 05:14:15;;;;;;;14.23;5.05;;;;;;;;;;5010427;28;20025;-71
2023/04/27 05:16:40;;;;;;;13.10;5.88;;;;;;;;;;5011547;28;20025;-72
2023/04/27 05:19:07;;;;;;;13.93;7.20;;;;;;;;;;5011687;28;20018;-72
2023/04/27 05:21:32;;;;;;;12.82;5.90;;;;;;;;;;5011534;28;20530;-70
2023/04/27 05:23:57;;;;;;;9.50;4.75;;;;;;;;;;5011550;28;20034;-70
2023/04/27 05:26:23;;;;;;;11.32;5.53;;;;;;;;;;5004224;28;20036;-68
2023/04/27 05:28:48;;;;;;;12.77;6.15;;;;;;;;;;5011345;28;20072;-70
2023/04/27 05:31:13;;;;;;;15.43;7.93;;;;;;;;;;4999566;28;20021;-70
2023/04/27 05:33:39;;;;;;;25.42;10.40;;;;;;;;;;5000759;28;20025;-71
2023/04/27 05:36:04;;;;;;;22.45;10.05;;;;;;;;;;5002476;28;20029;-69
2023/04/27 05:38:29;;;;;;;15.38;8.35;;;;;;;;;;5004719;28;20105;-71
2023/04/27 05:40:55;;;;;;;18.98;9.13;;;;;;;;;;5010849;28;20105;-70
2023/04/27 05:43:20;;;;;;;15.02;7.18;;;;;;;;;;5010556;28;20057;-69
2023/04/27 05:45:46;;;;;;;12.23;5.97;;;;;;;;;;5010820;28;20065;-68
2023/04/27 05:48:12;;;;;;;9.23;5.15;;;;;;;;;;5011486;28;20044;-71
2023/04/27 05:50:38;;;;;;;14.30;4.72;;;;;;;;;;5011462;28;20030;-70
2023/04/27 05:53:04;;;;;;;13.35;5.93;;;;;;;;;;5011217;28;20037;-71
2023/04/27 05:55:29;;;;;;;15.88;5.32;;;;;;;;;;5030145;22;20045;-71
2023/04/27 05:57:55;;;;;;;21.40;5.50;;;;;;;;;;5022478;28;20021;-68
2023/04/27 06:00:21;;;;;;;9.35;4.90;;;;;;;;;;5027640;28;20454;-73
2023/04/27 06:02:46;;;;;;;10.15;4.70;;;;;;;;;;5028144;28;20025;-74
2023/04/27 06:05:12;;;;;;;8.95;4.57;;;;;;;;;;5029170;28;20044;-73
2023/04/27 06:07:37;;;;;;;8.35;4.78;;;;;;;;;;5011971;28;20030;-72
2023/04/27 06:10:02;;;;;;;17.17;5.00;;;;;;;;;;5003686;28;20402;-71
2023/04/27 06:12:27;;;;;;;11.50;5.55;;;;;;;;;;5001222;28;20033;-71
2023/04/27 06:14:53;;;;;;;12.15;4.93;;;;;;;;;;5014271;28;20018;-72
2023/04/27 06:17:20;;;;;;;18.67;5.18;;;;;;;;;;5019011;28;20511;-74
2023/04/27 06:19:45;;;;;;;10.05;4.50;;;;;;;;;;5029106;28;20041;-73
2023/04/27 06:22:10;;;;;;;8.55;4.65;;;;;;;;;;5011948;28;20057;-70
2023/04/27 06:24:36;;;;;;;10.00;4.28;;;;;;;;;;5011765;28;20025;-72
2023/04/27 06:27:01;;;;;;;15.30;4.38;;;;;;;;;;5017882;28;20041;-69
2023/04/27 06:29:26;;;;;;;9.27;4.63;;;;;;;;;;5007416;28;20416;-71
2023/04/27 06:31:51;;;;;;;17.50;4.97;;;;;;;;;;5012562;28;20014;-70
2023/04/27 06:34:17;;;;;;;12.68;4.65;;;;;;;;;;4998280;28;20432;-72
2023/04/27 06:36:42;;;;;;;15.25;5.55;;;;;;;;;;5004799;28;20026;-73
2023/04/27 06:39:07;;;;;;;11.65;4.35;;;;;;;;;;5020100;28;20374;-75
2023/04/27 06:41:32;;;;;;;8.75;4.28;;;;;;;;;;5015865;28;20021;-71
2023/04/27 06:43:58;;;;;;;10.90;3.97;;;;;;;;;;5013101;28;20459;-70
2023/04/27 06:46:23;;;;;;;13.25;5.07;;;;;;;;;;5020817;28;20233;-71
2023/04/27 06:48:48;;;;;;;15.23;5.13;;;;;;;;;;5010035;28;20060;-72
2023/04/27 06:51:14;;;;;;;11.70;5.25;;;;;;;;;;5028348;28;20115;-72
2023/04/27 06:53:39;;;;;;;11.77;4.95;;;;;;;;;;5016455;28;20025;-68
2023/04/27 06:56:05;;;;;;;9.38;4.63;;;;;;;;;;5008455;28;20495;-73
2023/04/27 06:58:30;;;;;;;9.20;4.28;;;;;;;;;;5009065;28;20097;-73
2023/04/27 07:00:55;;;;;;;13.27;4.63;;;;;;;;;;5010419;28;20014;-76
2023/04/27 07:03:21;;;;;;;11.77;4.65;;;;;;;;;;5008730;28;20025;-72
2023/04/27 07:05:46;;;;;;;12.60;5.30;;;;;;;;;;5006615;28;20557;-71
2023/04/27 07:08:11;;;;;;;10.95;4.53;;;;;;;;;;5001609;28;20040;-69
2023/04/27 07:10:37;;;;;;;10.95;4.85;;;;;;;;;;4997132;28;20032;-72
2023/04/27 07:13:02;;;;;;;13.77;5.20;;;;;;;;;;5008675;28;20037;-71
2023/04/27 07:15:28;;;;;;;20.10;4.78;;;;;;;;;;5015351;28;20104;-71
2023/04/27 07:17:53;;;;;;;14.80;5.07;;;;;;;;;;5027792;28;20101;-73
2023/04/27 07:20:19;;;;;;;11.73;4.93;;;;;;;;;;5003932;28;20178;-70
2023/04/27 07:22:44;;;;;;;14.20;4.53;;;;;;;;;;5024779;28;20605;-72
2023/04/27 07:25:10;;;;;;;13.07;4.65;;;;;;;;;;5027434;28;20093;-70
2023/04/27 07:27:35;;;;;;;11.80;4.38;;;;;;;;;;5026010;28;20074;-71
2023/04/27 07:30:01;;;;;;;14.18;5.70;;;;;;;;;;5005339;28;20034;-67
2023/04/27 07:32:26;;;;;;;14.43;3.83;;;;;;;;;;5016436;28;20025;-72
2023/04/27 07:34:53;;;;;;;11.98;5.00;;;;;;;;;;5010849;28;20117;-71
2023/04/27 07:37:19;;;;;;;9.50;3.85;;;;;;;;;;5002580;28;20031;-69
2023/04/27 07:39:45;;;;;;;10.43;3.63;;;;;;;;;;5017080;28;20080;-71
2023/04/27 07:42:11;;;;;;;11.93;3.90;;;;;;;;;;5004418;28;20018;-69
2023/04/27 07:44:36;;;;;;;15.07;4.28;;;;;;;;;;5005267;28;20348;-72
2023/04/27 07:47:03;;;;;;;10.38;4.70;;;;;;;;;;5021291;28;20048;-71
2023/04/27 07:49:29;;;;;;;10.25;3.50;;;;;;;;;;5020562;28;20073;-70
2023/04/27 07:51:54;;;;;;;10.07;3.70;;;;;;;;;;5002106;28;20487;-70
2023/04/27 07:54:19;;;;;;;8.52;4.40;;;;;;;;;;5011302;28;20040;-71
2023/04/27 07:56:46;;;;;;;11.38;3.78;;;;;;;;;;5014588;28;20096;-69
2023/04/27 07:59:11;;;;;;;9.88;4.35;;;;;;;;;;5015067;28;20097;-73
2023/04/27 08:01:36;;;;;;;11.20;4.60;;;;;;;;;;5024930;28;20059;-71
2023/04/27 08:04:02;;;;;;;14.88;4.75;;;;;;;;;;5015297;28;20109;-72
2023/04/27 08:06:27;;;;;;;9.65;3.78;;;;;;;;;;5012614;28;20033;-71
2023/04/27 08:08:54;;;;;;;15.40;4.22;;;;;;;;;;5009148;28;20492;-71
2023/04/27 08:11:20;;;;;;;11.10;4.43;;;;;;;;;;5001861;28;20076;-70
2023/04/27 08:13:45;;;;;;;12.63;4.50;;;;;;;;;;5003756;28;20022;-71
2023/04/27 08:16:10;;;;;;;12.63;4.30;;;;;;;;;;5006133;28;20080;-70
2023/04/27 08:18:36;;;;;;;11.85;4.65;;;;;;;;;;5007719;28;20067;-70
2023/04/27 08:21:01;;;;;;;11.57;4.60;;;;;;;;;;5006941;28;20576;-70
2023/04/27 08:23:31;;;;;;;15.68;4.90;;;;;;;;;;5011111;28;20164;-67
2023/04/27 08:25:57;;;;;;;11.55;4.55;;;;;;;;;;5025179;28;20018;-70
2023/04/27 08:28:22;;;;;;;13.50;5.20;;;;;;;;;;5016822;28;20369;-70
2023/04/27 08:30:47;;;;;;;10.75;4.70;;;;;;;;;;5006785;28;20037;-70
2023/04/27 08:33:12;;;;;;;11.77;5.20;;;;;;;;;;5011297;28;20140;-74
2023/04/27 08:35:38;;;;;;;12.63;4.65;;;;;;;;;;5009691;28;20033;-70
2023/04/27 08:38:03;;;;;;;14.00;6.53;;;;;;;;;;5014965;28;20091;-72
2023/04/27 08:40:28;;;;;;;9.07;4.53;;;;;;;;;;5002882;28;20040;-70
2023/04/27 08:42:58;;;;;;;13.13;5.18;;;;;;;;;;5027034;28;20120;-73
2023/04/27 08:45:24;;;;;;;14.55;4.75;;;;;;;;;;5031470;28;20395;-70
2023/04/27 08:47:49;;;;;;;11.90;5.22;;;;;;;;;;5023677;28;20035;-75
2023/04/27 08:50:15;;;;;;;15.43;4.97;;;;;;;;;;5006023;28;20546;-74
2023/04/27 08:52:42;;;;;;;14.02;5.47;;;;;;;;;;5018726;28;20022;-71
2023/04/27 08:55:08;;;;;;;10.63;4.78;;;;;;;;;;5014839;28;20036;-71
2023/04/27 08:57:33;;;;;;;13.20;5.55;;;;;;;;;;5007572;28;20025;-73
2023/04/27 09:00:10;;;;;;;23.35;5.50;;;;;;;;;;4998832;28;20073;-74
2023/04/27 09:02:35;;;;;;;10.15;4.75;;;;;;;;;;5007028;28;20029;-73
2023/04/27 09:05:01;;;;;;;17.42;5.40;;;;;;;;;;5026284;28;20068;-69
2023/04/27 09:07:26;;;;;;;14.73;6.10;;;;;;;;;;5010328;28;20488;-72
2023/04/27 09:10:00;;;;;;;10.35;4.35;;;;;;;;;;5011334;28;20059;-73
2023/04/27 09:12:25;;;;;;;16.08;4.45;;;;;;;;;;5009340;28;20052;-74
2023/04/27 09:14:58;;;;;;;14.40;5.00;;;;;;;;;;5010398;28;20073;-74
2023/04/27 09:17:27;;;;;;;14.32;4.85;;;;;;;;;;5011022;28;20063;-73
2023/04/27 09:20:03;;;;;;;11.38;5.63;;;;;;;;;;5024104;28;20102;-73
2023/04/27 09:22:30;;;;;;;13.02;5.22;;;;;;;;;;5011436;28;20033;-73
2023/04/27 09:24:55;;;;;;;11.20;4.50;;;;;;;;;;5029037;28;20021;-72
2023/04/27 09:27:20;;;;;;;17.83;5.03;;;;;;;;;;5028385;28;20368;-72
2023/04/27 09:29:46;;;;;;;15.43;4.93;;;;;;;;;;5030780;28;20463;-73
2023/04/27 09:32:19;;;;;;;12.00;4.95;;;;;;;;;;5030073;28;20050;-75
2023/04/27 09:34:45;;;;;;;15.65;5.57;;;;;;;;;;5023933;28;20022;-69
2023/04/27 09:37:10;;;;;;;20.17;5.65;;;;;;;;;;5010595;28;20057;-74
2023/04/27 09:39:35;;;;;;;12.95;4.88;;;;;;;;;;5021292;28;20026;-73
2023/04/27 09:42:03;;;;;;;11.65;5.18;;;;;;;;;;5021172;28;20124;-72
2023/04/27 09:44:28;;;;;;;16.98;5.50;;;;;;;;;;5016308;28;20049;-74
2023/04/27 09:46:54;;;;;;;9.60;4.88;;;;;;;;;;5017392;28;20053;-72
2023/04/27 09:49:20;;;;;;;17.77;5.88;;;;;;;;;;5015826;28;20609;-74
2023/04/27 09:51:45;;;;;;;9.15;4.90;;;;;;;;;;4994852;28;20066;-72
2023/04/27 09:54:12;;;;;;;9.48;5.32;;;;;;;;;;5003633;28;20049;-73
2023/04/27 09:56:37;;;;;;;13.13;6.97;;;;;;;;;;5023283;28;20095;-74
2023/04/27 09:59:20;;;;;;;11.75;5.07;;;;;;;;;;5009693;28;20025;-73
2023/04/27 10:01:47;;;;;;;12.18;5.35;;;;;;;;;;5018948;28;20068;-72
2023/04/27 10:04:15;;;;;;;14.13;5.50;;;;;;;;;;5028579;28;20069;-71
2023/04/27 10:07:00;;;;;;;17.90;5.88;;;;;;;;;;5008935;28;20026;-74
2023/04/27 10:09:28;;;;;;;11.73;5.93;;;;;;;;;;5011717;28;20044;-74
2023/04/27 10:11:53;;;;;;;14.88;6.40;;;;;;;;;;5007799;28;20589;-74
2023/04/27 10:14:20;;;;;;;15.23;6.07;;;;;;;;;;5010132;28;20080;-73
2023/04/27 10:16:55;;;;;;;9.32;5.25;;;;;;;;;;5023177;28;20035;-73
2023/04/27 10:19:22;;;;;;;12.60;5.47;;;;;;;;;;5028248;28;20017;-70
2023/04/27 10:22:06;;;;;;;13.52;5.88;;;;;;;;;;4997179;28;20022;-74
2023/04/27 10:24:35;;;;;;;14.30;5.20;;;;;;;;;;5006098;28;20538;-73
2023/04/27 10:27:04;;;;;;;12.32;5.65;;;;;;;;;;5013084;28;20025;-69
2023/04/27 10:29:37;;;;;;;18.73;5.32;;;;;;;;;;5023275;28;20107;-75
2023/04/27 10:32:10;;;;;;;17.20;7.15;;;;;;;;;;5023702;28;20045;-68
2023/04/27 10:34:36;;;;;;;15.00;6.53;;;;;;;;;;5010325;28;20021;-72
2023/04/27 10:37:06;;;;;;;12.23;5.53;;;;;;;;;;5028971;28;20033;-74
2023/04/27 10:39:36;;;;;;;21.45;6.70;;;;;;;;;;5010853;28;20387;-75
2023/04/27 10:42:02;;;;;;;10.70;6.15;;;;;;;;;;4999435;28;20097;-74
2023/04/27 10:44:29;;;;;;;9.55;5.50;;;;;;;;;;5005501;28;20108;-70
2023/04/27 10:46:55;;;;;;;11.38;5.57;;;;;;;;;;5004299;28;20029;-69
2023/04/27 10:49:21;;;;;;;15.40;5.93;;;;;;;;;;5007532;28;20071;-73
2023/04/27 10:51:48;;;;;;;14.13;5.45;;;;;;;;;;5015734;28;20021;-73
2023/04/27 10:54:13;;;;;;;13.82;4.80;;;;;;;;;;5005667;28;20400;-74
2023/04/27 10:56:39;;;;;;;15.23;5.93;;;;;;;;;;4996710;28;20023;-73
2023/04/27 10:59:05;;;;;;;10.95;5.20;;;;;;;;;;5010582;28;20036;-72
2023/04/27 11:01:30;;;;;;;10.52;5.57;;;;;;;;;;5029505;28;20017;-73
2023/04/27 11:03:59;;;;;;;17.40;5.72;;;;;;;;;;5018050;28;20025;-71
2023/04/27 11:06:25;;;;;;;12.38;5.50;;;;;;;;;;4999962;28;20077;-72
2023/04/27 11:08:50;;;;;;;16.38;5.35;;;;;;;;;;5004804;28;20111;-74
2023/04/27 11:11:16;;;;;;;8.25;4.90;;;;;;;;;;5003713;28;20596;-74
2023/04/27 11:13:42;;;;;;;10.82;5.43;;;;;;;;;;5006396;28;20084;-74
2023/04/27 11:16:07;;;;;;;13.85;5.28;;;;;;;;;;5008898;28;20030;-71
2023/04/27 11:18:35;;;;;;;11.35;4.65;;;;;;;;;;5008985;28;20496;-72
2023/04/27 11:21:11;;;;;;;14.40;5.10;;;;;;;;;;5009135;28;20026;-74
2023/04/27 11:23:39;;;;;;;10.80;4.95;;;;;;;;;;5011836;28;20495;-71
2023/04/27 11:26:11;;;;;;;8.93;5.18;;;;;;;;;;5011867;28;20030;-72
2023/04/27 11:28:36;;;;;;;11.63;4.65;;;;;;;;;;5007370;28;20053;-69
2023/04/27 11:31:03;;;;;;;14.43;5.00;;;;;;;;;;5020961;28;20018;-73
2023/04/27 11:33:28;;;;;;;11.60;4.93;;;;;;;;;;5010064;28;20049;-73
2023/04/27 11:35:53;;;;;;;16.63;4.93;;;;;;;;;;5009075;28;20419;-75
2023/04/27 11:38:19;;;;;;;12.85;4.82;;;;;;;;;;5027477;28;20002;-73
2023/04/27 11:40:45;;;;;;;11.65;5.20;;;;;;;;;;5007646;28;20025;-73
2023/04/27 11:43:11;;;;;;;8.50;4.63;;;;;;;;;;5003451;28;20121;-73
2023/04/27 11:45:40;;;;;;;8.30;4.22;;;;;;;;;;4998378;28;20101;-70
2023/04/27 11:48:06;;;;;;;;;;;;;;;;;;5026289;28;20017;-73
2023/04/27 11:50:31;;;;;;;13.18;5.72;;;;;;;;;;5019038;28;20001;-73
2023/04/27 11:52:59;;;;;;;13.00;4.80;;;;;;;;;;5021749;28;20087;-70
2023/04/27 11:57:58;;;;;;;9.68;4.80;;;;;;;;;;4977610;28;20146;-66
2023/04/27 12:00:23;;;;;;;13.00;4.80;;;;;;;;;;4973853;28;20182;-69
2023/04/27 12:02:49;;;;;;;10.20;4.80;;;;;;;;;;4974014;28;20069;-66
2023/04/27 12:05:15;;;;;;;13.50;5.38;;;;;;;;;;4973853;28;20496;-67
2023/04/27 12:07:41;;;;;;;12.95;5.20;;;;;;;;;;4971540;28;20026;-67
2023/04/27 12:10:06;;;;;;;9.43;4.70;;;;;;;;;;4968103;28;20446;-68
2023/04/27 12:12:32;;;;;;;19.73;5.60;;;;;;;;;;4972587;28;20528;-67
2023/04/27 12:14:57;;;;;;;13.48;4.80;;;;;;;;;;4973272;28;20022;-68
2023/04/27 12:17:22;;;;;;;10.90;5.82;;;;;;;;;;4980027;28;20029;-67
2023/04/27 12:19:48;;;;;;;8.65;4.40;;;;;;;;;;4960926;28;20090;-67
2023/04/27 12:22:13;;;;;;;10.18;4.70;;;;;;;;;;4977340;28;20052;-67
2023/04/27 12:24:38;;;;;;;12.02;4.97;;;;;;;;;;4973124;28;20042;-63
2023/04/27 12:27:04;;;;;;;9.50;4.53;;;;;;;;;;4974063;28;20026;-66
2023/04/27 12:29:30;;;;;;;8.95;5.10;;;;;;;;;;4950466;28;20030;-66
2023/04/27 12:31:57;;;;;;;17.23;5.30;;;;;;;;;;4951671;28;20057;-63
2023/04/27 12:34:22;;;;;;;14.85;5.22;;;;;;;;;;4952942;28;20031;-67
2023/04/27 12:36:47;;;;;;;13.32;4.97;;;;;;;;;;4951273;28;20054;-67
2023/04/27 12:39:14;;;;;;;13.27;5.68;;;;;;;;;;4950296;28;20027;-68
2023/04/27 12:41:40;;;;;;;11.88;5.40;;;;;;;;;;4951516;28;20050;-66
2023/04/27 12:44:05;;;;;;;11.82;5.00;;;;;;;;;;4950335;28;20043;-65
2023/04/27 12:46:31;;;;;;;11.02;4.63;;;;;;;;;;4949475;28;20182;-67
2023/04/27 12:48:56;;;;;;;9.35;4.95;;;;;;;;;;4950542;28;20660;-69
2023/04/27 12:51:22;;;;;;;9.13;4.80;;;;;;;;;;4953075;28;20033;-68
2023/04/27 12:53:47;;;;;;;12.40;4.97;;;;;;;;;;4951466;28;20034;-64
2023/04/27 12:56:12;;;;;;;8.95;4.70;;;;;;;;;;4950193;28;20589;-68
2023/04/27 12:58:38;;;;;;;14.35;4.47;;;;;;;;;;4952459;28;20034;-65
2023/04/27 13:01:06;;;;;;;10.05;4.88;;;;;;;;;;4953168;28;20026;-66
2023/04/27 13:03:31;;;;;;;10.73;4.95;;;;;;;;;;4949643;28;20122;-68
2023/04/27 13:05:57;;;;;;;12.75;5.35;;;;;;;;;;4972315;28;20090;-67
2023/04/27 13:08:22;;;;;;;14.20;4.90;;;;;;;;;;4950965;28;20472;-67
2023/04/27 13:10:47;;;;;;;14.35;4.72;;;;;;;;;;4952836;28;20169;-65
2023/04/27 13:13:12;;;;;;;11.48;4.57;;;;;;;;;;4953223;28;20039;-69
2023/04/27 13:15:37;;;;;;;14.00;4.75;;;;;;;;;;4950897;28;20035;-65
2023/04/27 13:18:05;;;;;;;8.32;4.45;;;;;;;;;;4951455;28;20031;-65
2023/04/27 13:20:30;;;;;;;12.18;4.95;;;;;;;;;;4954447;28;20773;-67
2023/04/27 13:22:55;;;;;;;12.85;4.85;;;;;;;;;;4950984;28;20103;-67
2023/04/27 13:25:21;;;;;;;14.77;5.22;;;;;;;;;;4948635;28;20527;-66
2023/04/27 13:27:46;;;;;;;9.50;4.88;;;;;;;;;;4951510;28;20085;-62
2023/04/27 13:30:11;;;;;;;9.52;4.90;;;;;;;;;;4954233;28;21054;-64
2023/04/27 13:32:37;;;;;;;10.43;4.30;;;;;;;;;;4949774;28;20610;-65
2023/04/27 13:35:02;;;;;;;10.50;4.15;;;;;;;;;;4949737;28;20023;-68
2023/04/27 13:37:28;;;;;;;11.40;3.95;;;;;;;;;;4949542;28;20018;-66
2023/04/27 13:39:53;;;;;;;10.32;4.28;;;;;;;;;;4953026;28;20081;-65
2023/04/27 13:42:18;;;;;;;10.27;4.30;;;;;;;;;;4958084;28;20037;-67
2023/04/27 13:44:43;;;;;;;13.30;4.38;;;;;;;;;;4958448;28;20114;-64
2023/04/27 13:47:08;;;;;;;11.82;4.60;;;;;;;;;;4962913;28;20018;-65
2023/04/27 13:49:34;;;;;;;13.23;4.57;;;;;;;;;;4971456;28;20014;-63
2023/04/27 13:51:59;;;;;;;8.63;4.28;;;;;;;;;;4972297;28;20029;-68
2023/04/27 13:54:24;;;;;;;10.60;4.45;;;;;;;;;;4970643;28;20030;-66
2023/04/27 13:56:50;;;;;;;15.57;4.65;;;;;;;;;;4970195;28;20161;-68
2023/04/27 13:59:15;;;;;;;13.93;4.60;;;;;;;;;;4975192;28;20595;-65
2023/04/27 14:01:40;;;;;;;9.40;4.20;;;;;;;;;;4972379;28;20030;-65
2023/04/27 14:04:06;;;;;;;9.82;4.72;;;;;;;;;;4972877;28;20026;-67
2023/04/27 14:06:31;;;;;;;8.07;4.22;;;;;;;;;;4971819;28;20503;-65
2023/04/27 14:08:56;;;;;;;10.48;4.38;;;;;;;;;;4972291;28;20022;-65
2023/04/27 14:11:22;;;;;;;9.52;4.05;;;;;;;;;;4967977;28;20478;-63
2023/04/27 14:13:47;;;;;;;9.23;3.70;;;;;;;;;;4968744;28;20105;-66
2023/04/27 14:16:12;;;;;;;14.15;3.97;;;;;;;;;;4972284;28;20520;-66
2023/04/27 14:18:38;;;;;;;9.85;4.25;;;;;;;;;;4971968;28;20496;-65
2023/04/27 14:21:03;;;;;;;7.03;3.90;;;;;;;;;;4973197;28;20030;-66
2023/04/27 14:23:29;;;;;;;14.63;5.00;;;;;;;;;;4971607;28;20476;-65
2023/04/27 14:25:54;;;;;;;12.90;4.22;;;;;;;;;;4971476;28;20031;-64
2023/04/27 14:28:19;;;;;;;9.02;4.75;;;;;;;;;;4972068;28;20031;-66